JST914 YSSY-YPMQ
Flight info
| Callsign | JST914 |
|---|---|
| Flight time | 0h 36m |
| Altitude | 20000 |
| Route | TESAT H252 WLM V535 NICLA V652 PMQ |
| Aircraft | A320/M-SDE3FGHIRWY/LB1 |
Departure
| Time | 2026-05-08 00:51 |
|---|---|
| Airport | Sydney Kingsford Smith International Airport (YSSY) |
Arrival
| Time | 2026-05-08 01:28 |
|---|---|
| Airport | Port Macquarie Airport (YPMQ) |
| Time | Latitude | Longitude | Altitude | Speed | Heading |
|---|---|---|---|---|---|
| 2026-05-08 00:08 | -33.93562 | 151.17756 | 30 ft | 0 kts | 281° |
| 2026-05-08 00:09 | -33.93562 | 151.17757 | 30 ft | 0 kts | 281° |
| 2026-05-08 00:18 | -33.93562 | 151.17758 | 30 ft | 0 kts | 281° |
| 2026-05-08 00:26 | -33.93562 | 151.17759 | 30 ft | 0 kts | 281° |
| 2026-05-08 00:34 | -33.93562 | 151.17760 | 30 ft | 0 kts | 281° |
| 2026-05-08 00:40 | -33.93564 | 151.17774 | 30 ft | 2 kts | 272° |
| 2026-05-08 00:40 | -33.93565 | 151.17794 | 30 ft | 2 kts | 265° |
| 2026-05-08 00:40 | -33.93563 | 151.17813 | 30 ft | 2 kts | 243° |
| 2026-05-08 00:40 | -33.93553 | 151.17829 | 30 ft | 2 kts | 206° |
| 2026-05-08 00:41 | -33.93539 | 151.17835 | 30 ft | 1 kts | 188° |
| 2026-05-08 00:41 | -33.93535 | 151.17836 | 30 ft | 0 kts | 187° |
| 2026-05-08 00:46 | -33.93544 | 151.17835 | 30 ft | 3 kts | 187° |
| 2026-05-08 00:46 | -33.93573 | 151.17830 | 30 ft | 6 kts | 187° |
| 2026-05-08 00:47 | -33.93621 | 151.17822 | 30 ft | 8 kts | 192° |
| 2026-05-08 00:47 | -33.93688 | 151.17801 | 30 ft | 12 kts | 197° |
| 2026-05-08 00:47 | -33.93769 | 151.17812 | 30 ft | 14 kts | 132° |
| 2026-05-08 00:47 | -33.93807 | 151.17926 | 30 ft | 16 kts | 81° |
| 2026-05-08 00:48 | -33.93777 | 151.18033 | 30 ft | 14 kts | 77° |
| 2026-05-08 00:48 | -33.93750 | 151.18161 | 30 ft | 17 kts | 74° |
| 2026-05-08 00:48 | -33.93715 | 151.18307 | 30 ft | 19 kts | 74° |
| 2026-05-08 00:48 | -33.93675 | 151.18473 | 30 ft | 22 kts | 74° |
| 2026-05-08 00:49 | -33.93631 | 151.18657 | 30 ft | 24 kts | 74° |
| 2026-05-08 00:49 | -33.93620 | 151.18785 | 30 ft | 11 kts | 123° |
| 2026-05-08 00:49 | -33.93644 | 151.18804 | 30 ft | 0 kts | 160° |
| 2026-05-08 00:49 | -33.93646 | 151.18805 | 29 ft | 2 kts | 160° |
| 2026-05-08 00:50 | -33.93697 | 151.18824 | 28 ft | 11 kts | 165° |
| 2026-05-08 00:50 | -33.93785 | 151.18818 | 28 ft | 11 kts | 234° |
| 2026-05-08 00:50 | -33.93814 | 151.18727 | 28 ft | 10 kts | 253° |
| 2026-05-08 00:50 | -33.93815 | 151.18723 | 29 ft | 0 kts | 253° |
| 2026-05-08 00:51 | -33.93830 | 151.18666 | 27 ft | 29 kts | 253° |
| 2026-05-08 00:51 | -33.93949 | 151.18152 | 30 ft | 95 kts | 255° |
| 2026-05-08 00:51 | -33.94170 | 151.17181 | 65 ft | 140 kts | 256° |
| 2026-05-08 00:51 | -33.94431 | 151.16053 | 699 ft | 142 kts | 255° |
| 2026-05-08 00:52 | -33.94703 | 151.14901 | 1416 ft | 144 kts | 256° |
| 2026-05-08 00:52 | -33.94965 | 151.13715 | 1935 ft | 156 kts | 255° |
| 2026-05-08 00:52 | -33.95198 | 151.12345 | 2301 ft | 180 kts | 269° |
| 2026-05-08 00:52 | -33.94623 | 151.10875 | 2643 ft | 224 kts | 309° |
| 2026-05-08 00:53 | -33.93102 | 151.10015 | 3154 ft | 265 kts | 348° |
| 2026-05-08 00:53 | -33.91205 | 151.10363 | 3746 ft | 292 kts | 25° |
| 2026-05-08 00:53 | -33.89693 | 151.11955 | 4671 ft | 294 kts | 59° |
| 2026-05-08 00:53 | -33.88820 | 151.14180 | 5597 ft | 293 kts | 75° |
| 2026-05-08 00:54 | -33.88148 | 151.16496 | 6632 ft | 294 kts | 74° |
| 2026-05-08 00:54 | -33.87471 | 151.18836 | 7565 ft | 298 kts | 74° |
| 2026-05-08 00:54 | -33.86740 | 151.21188 | 8445 ft | 305 kts | 68° |
| 2026-05-08 00:54 | -33.85719 | 151.23463 | 9291 ft | 313 kts | 59° |
| 2026-05-08 00:55 | -33.84507 | 151.25673 | 10110 ft | 320 kts | 55° |
| 2026-05-08 00:55 | -33.83171 | 151.27926 | 10471 ft | 343 kts | 54° |
| 2026-05-08 00:55 | -33.81729 | 151.30331 | 10755 ft | 365 kts | 54° |
| 2026-05-08 00:55 | -33.80234 | 151.32862 | 11315 ft | 375 kts | 55° |
| 2026-05-08 00:56 | -33.78733 | 151.35468 | 11978 ft | 383 kts | 56° |
| 2026-05-08 00:56 | -33.77223 | 151.38145 | 12648 ft | 390 kts | 57° |
| 2026-05-08 00:56 | -33.75703 | 151.40875 | 13298 ft | 397 kts | 57° |
| 2026-05-08 00:56 | -33.74162 | 151.43657 | 13936 ft | 403 kts | 57° |
| 2026-05-08 00:57 | -33.72600 | 151.46484 | 14499 ft | 409 kts | 57° |
| 2026-05-08 00:57 | -33.71013 | 151.49346 | 15093 ft | 414 kts | 57° |
| 2026-05-08 00:57 | -33.69403 | 151.52235 | 15703 ft | 418 kts | 57° |
| 2026-05-08 00:57 | -33.67762 | 151.55131 | 16300 ft | 423 kts | 53° |
| 2026-05-08 00:58 | -33.65784 | 151.57767 | 16906 ft | 427 kts | 41° |
| 2026-05-08 00:58 | -33.63415 | 151.59930 | 17512 ft | 429 kts | 29° |
| 2026-05-08 00:58 | -33.60756 | 151.61543 | 18094 ft | 429 kts | 17° |
| 2026-05-08 00:58 | -33.57906 | 151.62585 | 18659 ft | 429 kts | 9° |
| 2026-05-08 00:59 | -33.55003 | 151.63460 | 19257 ft | 432 kts | 9° |
| 2026-05-08 00:59 | -33.52082 | 151.64348 | 19834 ft | 434 kts | 9° |
| 2026-05-08 00:59 | -33.49187 | 151.65234 | 20454 ft | 436 kts | 9° |
| 2026-05-08 00:59 | -33.46241 | 151.66130 | 20939 ft | 438 kts | 8° |
| 2026-05-08 01:00 | -33.43269 | 151.67031 | 21089 ft | 441 kts | 9° |
| 2026-05-08 01:00 | -33.40279 | 151.67948 | 21131 ft | 445 kts | 9° |
| 2026-05-08 01:00 | -33.37274 | 151.68886 | 21131 ft | 446 kts | 9° |
| 2026-05-08 01:00 | -33.34271 | 151.69832 | 21119 ft | 447 kts | 9° |
| 2026-05-08 01:01 | -33.31254 | 151.70784 | 21109 ft | 446 kts | 9° |
| 2026-05-08 01:01 | -33.28261 | 151.71726 | 21131 ft | 445 kts | 9° |
| 2026-05-08 01:01 | -33.25263 | 151.72662 | 21131 ft | 445 kts | 9° |
| 2026-05-08 01:01 | -33.22272 | 151.73590 | 21133 ft | 445 kts | 9° |
| 2026-05-08 01:02 | -33.19271 | 151.74479 | 21133 ft | 443 kts | 7° |
| 2026-05-08 01:02 | -33.16257 | 151.75233 | 21134 ft | 442 kts | 5° |
| 2026-05-08 01:02 | -33.13233 | 151.75881 | 21139 ft | 441 kts | 4° |
| 2026-05-08 01:02 | -33.10205 | 151.76477 | 21110 ft | 441 kts | 3° |
| 2026-05-08 01:03 | -33.07178 | 151.77069 | 21117 ft | 441 kts | 4° |
| 2026-05-08 01:03 | -33.04154 | 151.77678 | 21134 ft | 441 kts | 4° |
| 2026-05-08 01:03 | -33.01131 | 151.78312 | 21140 ft | 441 kts | 5° |
| 2026-05-08 01:03 | -32.98108 | 151.78972 | 21145 ft | 441 kts | 5° |
| 2026-05-08 01:04 | -32.95131 | 151.79633 | 21144 ft | 442 kts | 5° |
| 2026-05-08 01:04 | -32.92114 | 151.80306 | 21144 ft | 442 kts | 5° |
| 2026-05-08 01:04 | -32.89092 | 151.80976 | 21143 ft | 441 kts | 5° |
| 2026-05-08 01:04 | -32.86071 | 151.81637 | 21118 ft | 441 kts | 5° |
| 2026-05-08 01:05 | -32.83049 | 151.82292 | 21134 ft | 441 kts | 5° |
| 2026-05-08 01:05 | -32.80031 | 151.82906 | 21142 ft | 438 kts | 1° |
| 2026-05-08 01:05 | -32.77009 | 151.83249 | 21152 ft | 436 kts | 359° |
| 2026-05-08 01:05 | -32.73986 | 151.83580 | 21153 ft | 436 kts | 359° |
| 2026-05-08 01:06 | -32.70964 | 151.83914 | 21155 ft | 436 kts | 359° |
| 2026-05-08 01:06 | -32.67937 | 151.84249 | 21156 ft | 436 kts | 359° |
| 2026-05-08 01:06 | -32.64912 | 151.84583 | 21156 ft | 436 kts | 359° |
| 2026-05-08 01:06 | -32.61888 | 151.84919 | 21159 ft | 436 kts | 359° |
| 2026-05-08 01:07 | -32.58868 | 151.85250 | 21162 ft | 436 kts | 359° |
| 2026-05-08 01:07 | -32.55848 | 151.85578 | 21164 ft | 436 kts | 359° |
| 2026-05-08 01:07 | -32.52828 | 151.85909 | 21162 ft | 436 kts | 359° |
| 2026-05-08 01:07 | -32.49811 | 151.86243 | 21167 ft | 436 kts | 359° |
| 2026-05-08 01:08 | -32.46794 | 151.86572 | 21159 ft | 435 kts | 359° |
| 2026-05-08 01:08 | -32.43810 | 151.86944 | 21167 ft | 438 kts | 3° |
| 2026-05-08 01:08 | -32.40829 | 151.87773 | 21143 ft | 443 kts | 12° |
| 2026-05-08 01:08 | -32.37874 | 151.88838 | 21157 ft | 443 kts | 12° |
| 2026-05-08 01:09 | -32.34918 | 151.89897 | 21162 ft | 443 kts | 12° |
| 2026-05-08 01:09 | -32.32005 | 151.91121 | 21156 ft | 447 kts | 23° |
| 2026-05-08 01:09 | -32.29405 | 151.93163 | 21170 ft | 452 kts | 38° |
| 2026-05-08 01:09 | -32.27034 | 151.95603 | 21173 ft | 452 kts | 39° |
| 2026-05-08 01:10 | -32.24667 | 151.98056 | 21155 ft | 453 kts | 39° |
| 2026-05-08 01:10 | -32.22300 | 152.00508 | 21153 ft | 453 kts | 39° |
| 2026-05-08 01:10 | -32.19929 | 152.02961 | 21124 ft | 453 kts | 39° |
| 2026-05-08 01:10 | -32.17591 | 152.05381 | 21150 ft | 452 kts | 39° |
| 2026-05-08 01:11 | -32.15227 | 152.07827 | 21155 ft | 452 kts | 39° |
| 2026-05-08 01:11 | -32.12832 | 152.10301 | 21160 ft | 451 kts | 39° |
| 2026-05-08 01:11 | -32.10501 | 152.12707 | 21163 ft | 451 kts | 39° |
| 2026-05-08 01:11 | -32.08138 | 152.15141 | 21164 ft | 451 kts | 39° |
| 2026-05-08 01:12 | -32.05777 | 152.17572 | 21161 ft | 451 kts | 39° |
| 2026-05-08 01:12 | -32.03412 | 152.20003 | 21161 ft | 451 kts | 39° |
| 2026-05-08 01:12 | -32.01066 | 152.22412 | 21125 ft | 444 kts | 38° |
| 2026-05-08 01:12 | -31.99528 | 152.23993 | 21121 ft | 441 kts | 38° |
| 2026-05-08 01:13 | -31.97228 | 152.26359 | 20495 ft | 440 kts | 38° |
| 2026-05-08 01:13 | -31.94938 | 152.28709 | 19484 ft | 435 kts | 38° |
| 2026-05-08 01:13 | -31.92662 | 152.31043 | 18500 ft | 432 kts | 38° |
| 2026-05-08 01:13 | -31.90410 | 152.33351 | 17529 ft | 425 kts | 38° |
| 2026-05-08 01:14 | -31.88226 | 152.35588 | 16959 ft | 414 kts | 38° |
| 2026-05-08 01:14 | -31.86053 | 152.37814 | 16354 ft | 413 kts | 38° |
| 2026-05-08 01:14 | -31.83883 | 152.40034 | 15750 ft | 413 kts | 38° |
| 2026-05-08 01:14 | -31.81714 | 152.42251 | 15114 ft | 413 kts | 39° |
| 2026-05-08 01:15 | -31.79555 | 152.44450 | 14594 ft | 409 kts | 39° |
| 2026-05-08 01:15 | -31.77406 | 152.46641 | 14076 ft | 406 kts | 39° |
| 2026-05-08 01:15 | -31.75268 | 152.48824 | 13432 ft | 405 kts | 39° |
| 2026-05-08 01:15 | -31.73165 | 152.50967 | 12881 ft | 393 kts | 38° |
| 2026-05-08 01:16 | -31.71002 | 152.52764 | 12388 ft | 373 kts | 28° |
| 2026-05-08 01:16 | -31.68798 | 152.54310 | 11680 ft | 365 kts | 27° |
| 2026-05-08 01:16 | -31.66627 | 152.55810 | 10957 ft | 359 kts | 27° |
| 2026-05-08 01:16 | -31.64478 | 152.57280 | 10297 ft | 354 kts | 27° |
| 2026-05-08 01:17 | -31.62418 | 152.58683 | 10139 ft | 331 kts | 27° |
| 2026-05-08 01:17 | -31.60510 | 152.59982 | 9923 ft | 313 kts | 27° |
| 2026-05-08 01:17 | -31.58643 | 152.61200 | 9621 ft | 301 kts | 24° |
| 2026-05-08 01:17 | -31.56799 | 152.62269 | 9307 ft | 290 kts | 23° |
| 2026-05-08 01:18 | -31.55018 | 152.63278 | 9005 ft | 279 kts | 22° |
| 2026-05-08 01:18 | -31.53300 | 152.64249 | 8699 ft | 270 kts | 22° |
| 2026-05-08 01:18 | -31.51626 | 152.65192 | 8329 ft | 264 kts | 22° |
| 2026-05-08 01:18 | -31.49979 | 152.66117 | 7968 ft | 264 kts | 22° |
| 2026-05-08 01:19 | -31.48311 | 152.67043 | 7597 ft | 267 kts | 22° |
| 2026-05-08 01:19 | -31.46614 | 152.67971 | 7239 ft | 270 kts | 22° |
| 2026-05-08 01:19 | -31.44906 | 152.68898 | 6902 ft | 272 kts | 22° |
| 2026-05-08 01:19 | -31.43174 | 152.69827 | 6563 ft | 274 kts | 22° |
| 2026-05-08 01:20 | -31.41424 | 152.70759 | 6181 ft | 278 kts | 22° |
| 2026-05-08 01:20 | -31.39653 | 152.71696 | 5793 ft | 281 kts | 22° |
| 2026-05-08 01:20 | -31.37858 | 152.72641 | 5410 ft | 285 kts | 22° |
| 2026-05-08 01:20 | -31.36042 | 152.73597 | 5032 ft | 286 kts | 22° |
| 2026-05-08 01:21 | -31.34258 | 152.74538 | 4647 ft | 278 kts | 22° |
| 2026-05-08 01:21 | -31.32513 | 152.75451 | 4262 ft | 270 kts | 22° |
| 2026-05-08 01:21 | -31.30828 | 152.76346 | 3881 ft | 262 kts | 25° |
| 2026-05-08 01:21 | -31.29414 | 152.77607 | 3581 ft | 252 kts | 50° |
| 2026-05-08 01:22 | -31.28573 | 152.79338 | 3336 ft | 240 kts | 75° |
| 2026-05-08 01:22 | -31.28365 | 152.81210 | 3092 ft | 234 kts | 93° |
| 2026-05-08 01:22 | -31.28370 | 152.83079 | 2970 ft | 225 kts | 94° |
| 2026-05-08 01:22 | -31.28371 | 152.84897 | 2969 ft | 224 kts | 95° |
| 2026-05-08 01:23 | -31.28370 | 152.86728 | 2970 ft | 226 kts | 94° |
| 2026-05-08 01:23 | -31.28369 | 152.88563 | 2976 ft | 226 kts | 94° |
| 2026-05-08 01:23 | -31.28367 | 152.90403 | 2978 ft | 226 kts | 95° |
| 2026-05-08 01:23 | -31.28457 | 152.92222 | 2969 ft | 221 kts | 112° |
| 2026-05-08 01:24 | -31.29229 | 152.93655 | 2966 ft | 204 kts | 148° |
| 2026-05-08 01:24 | -31.30471 | 152.94291 | 2974 ft | 193 kts | 179° |
| 2026-05-08 01:24 | -31.31773 | 152.94076 | 2724 ft | 190 kts | 208° |
| 2026-05-08 01:24 | -31.32925 | 152.93303 | 2380 ft | 192 kts | 213° |
| 2026-05-08 01:25 | -31.34086 | 152.92514 | 2036 ft | 192 kts | 212° |
| 2026-05-08 01:25 | -31.35229 | 152.91751 | 1732 ft | 184 kts | 212° |
| 2026-05-08 01:25 | -31.36284 | 152.91051 | 1456 ft | 163 kts | 212° |
| 2026-05-08 01:25 | -31.37203 | 152.90444 | 1270 ft | 142 kts | 212° |
| 2026-05-08 01:26 | -31.38035 | 152.89894 | 1084 ft | 135 kts | 212° |
| 2026-05-08 01:26 | -31.38845 | 152.89354 | 909 ft | 132 kts | 211° |
| 2026-05-08 01:26 | -31.39642 | 152.88824 | 731 ft | 132 kts | 212° |
| 2026-05-08 01:26 | -31.40446 | 152.88288 | 585 ft | 134 kts | 212° |
| 2026-05-08 01:27 | -31.41255 | 152.87756 | 420 ft | 134 kts | 211° |
| 2026-05-08 01:27 | -31.42067 | 152.87206 | 243 ft | 134 kts | 210° |
| 2026-05-08 01:27 | -31.42881 | 152.86664 | 46 ft | 135 kts | 211° |
| 2026-05-08 01:27 | -31.43599 | 152.86183 | 23 ft | 90 kts | 210° |
| 2026-05-08 01:28 | -31.43907 | 152.85978 | 23 ft | 31 kts | 210° |
| 2026-05-08 01:28 | -31.44087 | 152.85854 | 21 ft | 27 kts | 212° |
| 2026-05-08 01:28 | -31.44242 | 152.85732 | 20 ft | 19 kts | 199° |
| 2026-05-08 01:28 | -31.44255 | 152.85741 | 20 ft | 3 kts | 58° |